createdAt,value
2022-11-05T00:10:30.049Z,92.48
2022-11-05T00:38:52.719Z,92.66
2022-11-05T01:07:13.268Z,92.97
2022-11-05T01:35:35.200Z,92.1
2022-11-05T02:03:59.983Z,92.87
2022-11-05T02:32:24.220Z,92.97
2022-11-05T03:00:48.693Z,93.69
2022-11-05T03:29:10.754Z,95.67
2022-11-05T03:57:34.203Z,97.58
2022-11-05T04:25:59.777Z,97.26
2022-11-05T04:54:25.820Z,96.61
2022-11-05T05:22:52.063Z,96.09
2022-11-05T05:51:15.990Z,96.02
2022-11-05T06:19:45.124Z,91.42
2022-11-05T06:48:13.746Z,90.6
2022-11-05T07:16:44.577Z,90.48
2022-11-05T07:45:11.371Z,88.7
2022-11-05T08:13:37.875Z,86.18
2022-11-05T08:42:07.396Z,85.8
2022-11-05T09:10:31.796Z,83.61
2022-11-05T09:39:00.248Z,82.69
2022-11-05T10:07:25.880Z,79.63
2022-11-05T10:35:50.251Z,77.98
2022-11-05T11:04:17.767Z,73.66
2022-11-05T11:32:39.456Z,74.42
2022-11-05T12:01:03.539Z,71.95
2022-11-05T12:29:36.619Z,73.09
2022-11-05T12:57:47.278Z,74.42
2022-11-05T13:26:05.780Z,73.54
2022-11-05T13:54:27.530Z,75.25
2022-11-05T14:22:50.396Z,76.59
2022-11-05T14:51:10.593Z,78.34
2022-11-05T15:19:33.034Z,77.52
2022-11-05T15:47:58.208Z,79.9
2022-11-05T16:16:20.745Z,84.01
2022-11-05T16:44:40.139Z,85.66
2022-11-05T17:13:00.074Z,86.46
2022-11-05T17:41:11.638Z,87.74
2022-11-05T18:09:33.819Z,87.25
2022-11-05T18:37:52.127Z,87.9
2022-11-05T19:06:14.112Z,87.46
2022-11-05T19:34:39.695Z,88.71
2022-11-05T20:02:47.685Z,87.92
2022-11-05T20:31:02.398Z,88.74
2022-11-05T20:59:14.658Z,91.76
2022-11-05T21:27:44.357Z,92.36
2022-11-05T21:55:55.032Z,90.05
2022-11-05T22:24:16.797Z,89.5
2022-11-05T22:52:38.523Z,89.51
2022-11-05T23:20:54.167Z,89.8
2022-11-05T23:49:04.301Z,89.1
